sensor_id;sensor_type;location;lat;lon;timestamp;temperature;humidity
41720;DHT22;27405;53.316;-6.294;2023-05-07T00:00:37;15.00;99.90
41720;DHT22;27405;53.316;-6.294;2023-05-07T00:03:03;15.00;99.90
41720;DHT22;27405;53.316;-6.294;2023-05-07T00:05:29;15.00;99.90
41720;DHT22;27405;53.316;-6.294;2023-05-07T00:07:55;15.00;99.90
41720;DHT22;27405;53.316;-6.294;2023-05-07T00:10:20;15.00;99.90
41720;DHT22;27405;53.316;-6.294;2023-05-07T00:12:46;15.00;99.90
41720;DHT22;27405;53.316;-6.294;2023-05-07T00:15:12;15.00;99.90
41720;DHT22;27405;53.316;-6.294;2023-05-07T00:17:37;15.00;99.90
41720;DHT22;27405;53.316;-6.294;2023-05-07T00:20:04;14.90;99.90
41720;DHT22;27405;53.316;-6.294;2023-05-07T00:22:31;14.90;99.90
41720;DHT22;27405;53.316;-6.294;2023-05-07T00:24:58;14.90;99.90
41720;DHT22;27405;53.316;-6.294;2023-05-07T00:27:24;14.80;99.90
41720;DHT22;27405;53.316;-6.294;2023-05-07T00:29:50;14.80;99.90
41720;DHT22;27405;53.316;-6.294;2023-05-07T00:32:16;14.80;99.90
41720;DHT22;27405;53.316;-6.294;2023-05-07T00:34:43;14.80;99.90
41720;DHT22;27405;53.316;-6.294;2023-05-07T00:37:08;14.80;99.90
41720;DHT22;27405;53.316;-6.294;2023-05-07T00:39:35;14.80;99.90
41720;DHT22;27405;53.316;-6.294;2023-05-07T00:42:01;14.80;99.90
41720;DHT22;27405;53.316;-6.294;2023-05-07T00:44:27;14.90;99.90
41720;DHT22;27405;53.316;-6.294;2023-05-07T00:46:54;14.90;99.90
41720;DHT22;27405;53.316;-6.294;2023-05-07T00:49:20;14.90;99.90
41720;DHT22;27405;53.316;-6.294;2023-05-07T00:51:46;14.90;99.90
41720;DHT22;27405;53.316;-6.294;2023-05-07T00:54:13;14.80;99.90
41720;DHT22;27405;53.316;-6.294;2023-05-07T00:56:39;14.80;99.90
41720;DHT22;27405;53.316;-6.294;2023-05-07T00:59:05;14.80;99.90
41720;DHT22;27405;53.316;-6.294;2023-05-07T01:01:31;14.90;99.90
41720;DHT22;27405;53.316;-6.294;2023-05-07T01:03:57;14.80;99.90
41720;DHT22;27405;53.316;-6.294;2023-05-07T01:06:24;14.80;99.90
41720;DHT22;27405;53.316;-6.294;2023-05-07T01:08:53;14.80;99.90
41720;DHT22;27405;53.316;-6.294;2023-05-07T01:11:22;14.80;99.90
41720;DHT22;27405;53.316;-6.294;2023-05-07T01:13:49;14.80;99.90
41720;DHT22;27405;53.316;-6.294;2023-05-07T01:16:15;14.80;99.90
41720;DHT22;27405;53.316;-6.294;2023-05-07T01:18:41;14.80;99.90
41720;DHT22;27405;53.316;-6.294;2023-05-07T01:21:08;14.80;99.90
41720;DHT22;27405;53.316;-6.294;2023-05-07T01:23:36;14.80;99.90
41720;DHT22;27405;53.316;-6.294;2023-05-07T01:26:01;14.80;99.90
41720;DHT22;27405;53.316;-6.294;2023-05-07T01:28:27;14.80;99.90
41720;DHT22;27405;53.316;-6.294;2023-05-07T01:30:56;14.80;99.90
41720;DHT22;27405;53.316;-6.294;2023-05-07T01:33:26;14.70;99.90
41720;DHT22;27405;53.316;-6.294;2023-05-07T01:35:53;14.70;99.90
41720;DHT22;27405;53.316;-6.294;2023-05-07T01:38:21;14.70;99.90
41720;DHT22;27405;53.316;-6.294;2023-05-07T01:40:47;14.80;99.90
41720;DHT22;27405;53.316;-6.294;2023-05-07T01:43:13;14.70;99.90
41720;DHT22;27405;53.316;-6.294;2023-05-07T01:45:40;14.70;99.90
41720;DHT22;27405;53.316;-6.294;2023-05-07T01:48:07;14.70;99.90
41720;DHT22;27405;53.316;-6.294;2023-05-07T01:50:34;14.70;99.90
41720;DHT22;27405;53.316;-6.294;2023-05-07T01:53:01;14.70;99.90
41720;DHT22;27405;53.316;-6.294;2023-05-07T01:55:26;14.70;99.90
41720;DHT22;27405;53.316;-6.294;2023-05-07T01:57:52;14.60;99.90
41720;DHT22;27405;53.316;-6.294;2023-05-07T02:00:18;14.70;99.90
41720;DHT22;27405;53.316;-6.294;2023-05-07T02:02:44;14.70;99.90
41720;DHT22;27405;53.316;-6.294;2023-05-07T02:05:10;14.60;99.90
41720;DHT22;27405;53.316;-6.294;2023-05-07T02:07:36;14.60;99.90
41720;DHT22;27405;53.316;-6.294;2023-05-07T02:10:01;14.60;99.90
41720;DHT22;27405;53.316;-6.294;2023-05-07T02:12:28;14.50;99.90
41720;DHT22;27405;53.316;-6.294;2023-05-07T02:14:54;14.50;99.90
41720;DHT22;27405;53.316;-6.294;2023-05-07T02:17:19;14.50;99.90
41720;DHT22;27405;53.316;-6.294;2023-05-07T02:19:45;14.50;99.90
41720;DHT22;27405;53.316;-6.294;2023-05-07T02:22:11;14.50;99.90
41720;DHT22;27405;53.316;-6.294;2023-05-07T02:24:36;14.50;99.90
41720;DHT22;27405;53.316;-6.294;2023-05-07T02:27:02;14.50;99.90
41720;DHT22;27405;53.316;-6.294;2023-05-07T02:29:29;14.50;99.90
41720;DHT22;27405;53.316;-6.294;2023-05-07T02:31:54;14.40;99.90
41720;DHT22;27405;53.316;-6.294;2023-05-07T02:34:20;14.40;99.90
41720;DHT22;27405;53.316;-6.294;2023-05-07T02:36:46;14.40;99.90
41720;DHT22;27405;53.316;-6.294;2023-05-07T02:39:13;14.40;99.90
41720;DHT22;27405;53.316;-6.294;2023-05-07T02:41:39;14.40;99.90
41720;DHT22;27405;53.316;-6.294;2023-05-07T02:44:05;14.40;99.90
41720;DHT22;27405;53.316;-6.294;2023-05-07T02:46:30;14.40;99.90
41720;DHT22;27405;53.316;-6.294;2023-05-07T02:48:56;14.40;99.90
41720;DHT22;27405;53.316;-6.294;2023-05-07T02:51:22;14.30;99.90
41720;DHT22;27405;53.316;-6.294;2023-05-07T02:53:48;14.30;99.90
41720;DHT22;27405;53.316;-6.294;2023-05-07T02:56:14;14.20;99.90
41720;DHT22;27405;53.316;-6.294;2023-05-07T02:58:40;14.20;99.90
41720;DHT22;27405;53.316;-6.294;2023-05-07T03:01:06;14.10;99.90
41720;DHT22;27405;53.316;-6.294;2023-05-07T03:03:31;14.10;99.90
41720;DHT22;27405;53.316;-6.294;2023-05-07T03:05:57;14.00;99.90
41720;DHT22;27405;53.316;-6.294;2023-05-07T03:08:23;13.90;99.90
41720;DHT22;27405;53.316;-6.294;2023-05-07T03:10:49;13.90;99.90
41720;DHT22;27405;53.316;-6.294;2023-05-07T03:13:14;13.90;99.90
41720;DHT22;27405;53.316;-6.294;2023-05-07T03:15:40;13.90;99.90
41720;DHT22;27405;53.316;-6.294;2023-05-07T03:18:06;13.80;99.90
41720;DHT22;27405;53.316;-6.294;2023-05-07T03:20:32;13.80;99.90
41720;DHT22;27405;53.316;-6.294;2023-05-07T03:22:58;13.80;99.90
41720;DHT22;27405;53.316;-6.294;2023-05-07T03:25:23;13.80;99.90
41720;DHT22;27405;53.316;-6.294;2023-05-07T03:27:49;13.70;99.90
41720;DHT22;27405;53.316;-6.294;2023-05-07T03:30:15;13.70;99.90
41720;DHT22;27405;53.316;-6.294;2023-05-07T03:32:41;13.70;99.90
41720;DHT22;27405;53.316;-6.294;2023-05-07T03:35:06;13.60;99.90
41720;DHT22;27405;53.316;-6.294;2023-05-07T03:37:33;13.60;99.90
41720;DHT22;27405;53.316;-6.294;2023-05-07T03:39:58;13.50;99.90
41720;DHT22;27405;53.316;-6.294;2023-05-07T03:42:24;13.50;99.90
41720;DHT22;27405;53.316;-6.294;2023-05-07T03:44:50;13.50;99.90
41720;DHT22;27405;53.316;-6.294;2023-05-07T03:47:15;13.50;99.90
41720;DHT22;27405;53.316;-6.294;2023-05-07T03:49:41;13.50;99.90
41720;DHT22;27405;53.316;-6.294;2023-05-07T03:52:07;13.50;99.90
41720;DHT22;27405;53.316;-6.294;2023-05-07T03:54:32;13.50;99.90
41720;DHT22;27405;53.316;-6.294;2023-05-07T03:56:58;13.50;99.90
41720;DHT22;27405;53.316;-6.294;2023-05-07T03:59:24;13.50;99.90
41720;DHT22;27405;53.316;-6.294;2023-05-07T04:01:50;13.50;99.90
41720;DHT22;27405;53.316;-6.294;2023-05-07T04:04:16;13.50;99.90
41720;DHT22;27405;53.316;-6.294;2023-05-07T04:06:42;13.50;99.90
41720;DHT22;27405;53.316;-6.294;2023-05-07T04:09:08;13.50;99.90
41720;DHT22;27405;53.316;-6.294;2023-05-07T04:11:35;13.50;99.90
41720;DHT22;27405;53.316;-6.294;2023-05-07T04:14:00;13.50;99.90
41720;DHT22;27405;53.316;-6.294;2023-05-07T04:16:26;13.50;99.90
41720;DHT22;27405;53.316;-6.294;2023-05-07T04:18:51;13.50;99.90
41720;DHT22;27405;53.316;-6.294;2023-05-07T04:21:18;13.60;99.90
41720;DHT22;27405;53.316;-6.294;2023-05-07T04:23:45;13.60;99.90
41720;DHT22;27405;53.316;-6.294;2023-05-07T04:26:11;13.60;99.90
41720;DHT22;27405;53.316;-6.294;2023-05-07T04:28:38;13.70;99.90
41720;DHT22;27405;53.316;-6.294;2023-05-07T04:31:03;13.70;99.90
41720;DHT22;27405;53.316;-6.294;2023-05-07T04:33:29;13.70;99.90
41720;DHT22;27405;53.316;-6.294;2023-05-07T04:35:55;13.80;99.90
41720;DHT22;27405;53.316;-6.294;2023-05-07T04:38:21;13.80;99.90
41720;DHT22;27405;53.316;-6.294;2023-05-07T04:40:49;13.80;99.90
41720;DHT22;27405;53.316;-6.294;2023-05-07T04:43:14;13.90;99.90
41720;DHT22;27405;53.316;-6.294;2023-05-07T04:45:41;13.90;99.90
41720;DHT22;27405;53.316;-6.294;2023-05-07T04:48:08;13.90;99.90
41720;DHT22;27405;53.316;-6.294;2023-05-07T04:50:34;13.90;99.90
41720;DHT22;27405;53.316;-6.294;2023-05-07T04:53:00;13.90;99.90
41720;DHT22;27405;53.316;-6.294;2023-05-07T04:55:26;13.90;99.90
41720;DHT22;27405;53.316;-6.294;2023-05-07T04:57:52;13.90;99.90
41720;DHT22;27405;53.316;-6.294;2023-05-07T05:00:18;13.90;99.90
41720;DHT22;27405;53.316;-6.294;2023-05-07T05:02:45;14.00;99.90
41720;DHT22;27405;53.316;-6.294;2023-05-07T05:05:11;13.90;99.90
41720;DHT22;27405;53.316;-6.294;2023-05-07T05:07:37;13.90;99.90
41720;DHT22;27405;53.316;-6.294;2023-05-07T05:10:04;14.00;99.90
41720;DHT22;27405;53.316;-6.294;2023-05-07T05:12:31;14.00;99.90
41720;DHT22;27405;53.316;-6.294;2023-05-07T05:14:56;14.00;99.90
41720;DHT22;27405;53.316;-6.294;2023-05-07T05:17:23;14.00;99.90
41720;DHT22;27405;53.316;-6.294;2023-05-07T05:19:49;14.00;99.90
41720;DHT22;27405;53.316;-6.294;2023-05-07T05:22:15;14.00;99.90
41720;DHT22;27405;53.316;-6.294;2023-05-07T05:24:40;14.00;99.90
41720;DHT22;27405;53.316;-6.294;2023-05-07T05:27:06;14.00;99.90
41720;DHT22;27405;53.316;-6.294;2023-05-07T05:29:32;14.00;99.90
41720;DHT22;27405;53.316;-6.294;2023-05-07T05:31:57;14.00;99.90
41720;DHT22;27405;53.316;-6.294;2023-05-07T05:34:23;14.00;99.90
41720;DHT22;27405;53.316;-6.294;2023-05-07T05:36:49;14.00;99.90
41720;DHT22;27405;53.316;-6.294;2023-05-07T05:39:14;14.00;99.90
41720;DHT22;27405;53.316;-6.294;2023-05-07T05:41:40;14.00;99.90
41720;DHT22;27405;53.316;-6.294;2023-05-07T05:44:06;14.00;99.90
41720;DHT22;27405;53.316;-6.294;2023-05-07T05:46:32;13.90;99.90
41720;DHT22;27405;53.316;-6.294;2023-05-07T05:48:58;13.90;99.90
41720;DHT22;27405;53.316;-6.294;2023-05-07T05:51:23;13.80;99.90
41720;DHT22;27405;53.316;-6.294;2023-05-07T05:53:49;13.80;99.90
41720;DHT22;27405;53.316;-6.294;2023-05-07T05:56:16;13.70;99.90
41720;DHT22;27405;53.316;-6.294;2023-05-07T05:58:42;13.70;99.90
41720;DHT22;27405;53.316;-6.294;2023-05-07T06:01:07;13.70;99.90
41720;DHT22;27405;53.316;-6.294;2023-05-07T06:03:33;13.70;99.90
41720;DHT22;27405;53.316;-6.294;2023-05-07T06:05:59;13.70;99.90
41720;DHT22;27405;53.316;-6.294;2023-05-07T06:08:28;13.60;99.90
41720;DHT22;27405;53.316;-6.294;2023-05-07T06:10:54;13.70;99.90
41720;DHT22;27405;53.316;-6.294;2023-05-07T06:13:20;13.70;99.90
41720;DHT22;27405;53.316;-6.294;2023-05-07T06:15:45;13.70;99.90
41720;DHT22;27405;53.316;-6.294;2023-05-07T06:18:11;13.80;99.90
41720;DHT22;27405;53.316;-6.294;2023-05-07T06:20:36;13.90;99.90
41720;DHT22;27405;53.316;-6.294;2023-05-07T06:23:02;14.00;99.90
41720;DHT22;27405;53.316;-6.294;2023-05-07T06:25:28;14.00;99.90
41720;DHT22;27405;53.316;-6.294;2023-05-07T06:27:53;14.10;99.90
41720;DHT22;27405;53.316;-6.294;2023-05-07T06:30:19;14.20;99.90
41720;DHT22;27405;53.316;-6.294;2023-05-07T06:32:45;14.20;99.90
41720;DHT22;27405;53.316;-6.294;2023-05-07T06:35:10;14.30;99.90
41720;DHT22;27405;53.316;-6.294;2023-05-07T06:37:36;14.30;99.90
41720;DHT22;27405;53.316;-6.294;2023-05-07T06:40:05;14.40;99.90
41720;DHT22;27405;53.316;-6.294;2023-05-07T06:42:31;14.50;99.90
41720;DHT22;27405;53.316;-6.294;2023-05-07T06:44:57;14.60;99.90
41720;DHT22;27405;53.316;-6.294;2023-05-07T06:47:22;14.70;99.90
41720;DHT22;27405;53.316;-6.294;2023-05-07T06:49:48;14.80;99.90
41720;DHT22;27405;53.316;-6.294;2023-05-07T06:52:14;15.00;99.90
41720;DHT22;27405;53.316;-6.294;2023-05-07T06:54:39;15.20;99.90
41720;DHT22;27405;53.316;-6.294;2023-05-07T06:57:05;15.40;99.90
41720;DHT22;27405;53.316;-6.294;2023-05-07T06:59:31;15.50;99.60
41720;DHT22;27405;53.316;-6.294;2023-05-07T07:01:56;15.70;99.40
41720;DHT22;27405;53.316;-6.294;2023-05-07T07:04:22;15.80;99.10
41720;DHT22;27405;53.316;-6.294;2023-05-07T07:06:49;16.00;98.90
41720;DHT22;27405;53.316;-6.294;2023-05-07T07:09:14;16.10;98.60
41720;DHT22;27405;53.316;-6.294;2023-05-07T07:11:40;16.20;98.40
41720;DHT22;27405;53.316;-6.294;2023-05-07T07:14:06;16.20;98.10
41720;DHT22;27405;53.316;-6.294;2023-05-07T07:16:31;16.30;98.00
41720;DHT22;27405;53.316;-6.294;2023-05-07T07:18:57;16.30;97.70
41720;DHT22;27405;53.316;-6.294;2023-05-07T07:21:23;16.30;97.50
41720;DHT22;27405;53.316;-6.294;2023-05-07T07:23:48;16.20;97.40
41720;DHT22;27405;53.316;-6.294;2023-05-07T07:26:14;16.10;97.30
41720;DHT22;27405;53.316;-6.294;2023-05-07T07:28:44;16.10;97.40
41720;DHT22;27405;53.316;-6.294;2023-05-07T07:31:10;16.10;97.40
41720;DHT22;27405;53.316;-6.294;2023-05-07T07:33:36;16.10;97.40
41720;DHT22;27405;53.316;-6.294;2023-05-07T07:36:02;16.20;97.50
41720;DHT22;27405;53.316;-6.294;2023-05-07T07:38:27;16.30;97.60
41720;DHT22;27405;53.316;-6.294;2023-05-07T07:40:53;16.40;97.30
41720;DHT22;27405;53.316;-6.294;2023-05-07T07:43:19;16.50;97.10
41720;DHT22;27405;53.316;-6.294;2023-05-07T07:45:44;16.60;97.10
41720;DHT22;27405;53.316;-6.294;2023-05-07T07:48:11;16.60;97.10
41720;DHT22;27405;53.316;-6.294;2023-05-07T07:50:37;16.70;97.10
41720;DHT22;27405;53.316;-6.294;2023-05-07T07:53:03;16.70;97.00
41720;DHT22;27405;53.316;-6.294;2023-05-07T07:55:28;16.70;96.90
41720;DHT22;27405;53.316;-6.294;2023-05-07T07:57:56;16.80;96.90
41720;DHT22;27405;53.316;-6.294;2023-05-07T08:00:22;16.80;96.90
41720;DHT22;27405;53.316;-6.294;2023-05-07T08:02:47;16.90;96.90
41720;DHT22;27405;53.316;-6.294;2023-05-07T08:05:13;17.00;96.70
41720;DHT22;27405;53.316;-6.294;2023-05-07T08:07:39;17.10;96.60
41720;DHT22;27405;53.316;-6.294;2023-05-07T08:10:05;17.20;96.50
41720;DHT22;27405;53.316;-6.294;2023-05-07T08:12:30;17.20;96.40
41720;DHT22;27405;53.316;-6.294;2023-05-07T08:14:56;17.40;96.60
41720;DHT22;27405;53.316;-6.294;2023-05-07T08:17:22;17.40;96.50
41720;DHT22;27405;53.316;-6.294;2023-05-07T08:19:48;17.40;96.50
41720;DHT22;27405;53.316;-6.294;2023-05-07T08:22:14;17.40;96.30
41720;DHT22;27405;53.316;-6.294;2023-05-07T08:24:40;17.30;96.10
41720;DHT22;27405;53.316;-6.294;2023-05-07T08:27:05;17.30;95.90
41720;DHT22;27405;53.316;-6.294;2023-05-07T08:29:31;17.30;96.00
41720;DHT22;27405;53.316;-6.294;2023-05-07T08:31:57;17.20;96.10
41720;DHT22;27405;53.316;-6.294;2023-05-07T08:34:22;17.10;96.20
41720;DHT22;27405;53.316;-6.294;2023-05-07T08:36:48;17.10;96.30
41720;DHT22;27405;53.316;-6.294;2023-05-07T08:39:17;17.00;96.20
41720;DHT22;27405;53.316;-6.294;2023-05-07T08:41:45;17.00;96.10
41720;DHT22;27405;53.316;-6.294;2023-05-07T08:44:13;17.00;96.20
41720;DHT22;27405;53.316;-6.294;2023-05-07T08:46:42;17.00;96.20
41720;DHT22;27405;53.316;-6.294;2023-05-07T08:49:12;17.00;96.30
41720;DHT22;27405;53.316;-6.294;2023-05-07T08:51:38;17.00;96.30
41720;DHT22;27405;53.316;-6.294;2023-05-07T08:54:04;17.00;96.50
41720;DHT22;27405;53.316;-6.294;2023-05-07T08:56:30;17.00;96.80
41720;DHT22;27405;53.316;-6.294;2023-05-07T08:58:56;17.10;97.10
41720;DHT22;27405;53.316;-6.294;2023-05-07T09:01:24;17.20;97.20
41720;DHT22;27405;53.316;-6.294;2023-05-07T09:03:51;17.40;97.00
41720;DHT22;27405;53.316;-6.294;2023-05-07T09:06:17;17.70;97.00
41720;DHT22;27405;53.316;-6.294;2023-05-07T09:08:49;17.90;97.00
41720;DHT22;27405;53.316;-6.294;2023-05-07T09:11:16;18.10;96.40
41720;DHT22;27405;53.316;-6.294;2023-05-07T09:13:42;18.20;95.90
41720;DHT22;27405;53.316;-6.294;2023-05-07T09:16:12;18.30;95.50
41720;DHT22;27405;53.316;-6.294;2023-05-07T09:18:42;18.30;95.10
41720;DHT22;27405;53.316;-6.294;2023-05-07T09:21:15;18.40;94.80
41720;DHT22;27405;53.316;-6.294;2023-05-07T09:23:41;18.40;94.70
41720;DHT22;27405;53.316;-6.294;2023-05-07T09:26:07;18.50;94.50
41720;DHT22;27405;53.316;-6.294;2023-05-07T09:28:40;18.60;94.40
41720;DHT22;27405;53.316;-6.294;2023-05-07T09:31:10;18.60;94.20
41720;DHT22;27405;53.316;-6.294;2023-05-07T09:33:36;18.60;94.10
41720;DHT22;27405;53.316;-6.294;2023-05-07T09:36:04;18.60;93.90
41720;DHT22;27405;53.316;-6.294;2023-05-07T09:38:31;18.60;94.00
41720;DHT22;27405;53.316;-6.294;2023-05-07T09:41:11;18.60;94.00
41720;DHT22;27405;53.316;-6.294;2023-05-07T09:43:39;18.50;94.00
41720;DHT22;27405;53.316;-6.294;2023-05-07T09:46:13;18.50;93.80
41720;DHT22;27405;53.316;-6.294;2023-05-07T09:48:41;18.40;93.50
41720;DHT22;27405;53.316;-6.294;2023-05-07T09:51:15;18.30;93.40
41720;DHT22;27405;53.316;-6.294;2023-05-07T09:53:43;18.10;93.90
41720;DHT22;27405;53.316;-6.294;2023-05-07T09:56:12;18.10;94.00
41720;DHT22;27405;53.316;-6.294;2023-05-07T09:58:39;18.00;93.70
41720;DHT22;27405;53.316;-6.294;2023-05-07T10:01:07;17.90;93.70
41720;DHT22;27405;53.316;-6.294;2023-05-07T10:03:33;17.90;93.60
41720;DHT22;27405;53.316;-6.294;2023-05-07T10:06:01;18.00;93.60
41720;DHT22;27405;53.316;-6.294;2023-05-07T10:08:30;18.00;93.40
41720;DHT22;27405;53.316;-6.294;2023-05-07T10:10:56;18.00;93.20
41720;DHT22;27405;53.316;-6.294;2023-05-07T10:13:22;18.10;93.20
41720;DHT22;27405;53.316;-6.294;2023-05-07T10:15:47;18.20;93.40
41720;DHT22;27405;53.316;-6.294;2023-05-07T10:18:14;18.40;93.70
41720;DHT22;27405;53.316;-6.294;2023-05-07T10:20:41;18.60;93.60
41720;DHT22;27405;53.316;-6.294;2023-05-07T10:23:09;18.60;93.30
41720;DHT22;27405;53.316;-6.294;2023-05-07T10:25:38;18.70;93.40
41720;DHT22;27405;53.316;-6.294;2023-05-07T10:28:08;18.80;93.30
41720;DHT22;27405;53.316;-6.294;2023-05-07T10:33:06;19.00;93.20
41720;DHT22;27405;53.316;-6.294;2023-05-07T10:35:42;19.00;93.10
41720;DHT22;27405;53.316;-6.294;2023-05-07T10:38:08;19.00;93.00
41720;DHT22;27405;53.316;-6.294;2023-05-07T10:40:35;19.10;92.90
41720;DHT22;27405;53.316;-6.294;2023-05-07T10:43:03;19.10;92.80
41720;DHT22;27405;53.316;-6.294;2023-05-07T10:45:32;19.20;92.80
41720;DHT22;27405;53.316;-6.294;2023-05-07T10:48:12;19.20;92.80
41720;DHT22;27405;53.316;-6.294;2023-05-07T10:50:40;19.40;92.70
41720;DHT22;27405;53.316;-6.294;2023-05-07T10:53:21;19.50;92.40
41720;DHT22;27405;53.316;-6.294;2023-05-07T10:55:51;19.50;92.30
41720;DHT22;27405;53.316;-6.294;2023-05-07T10:58:25;19.50;92.10
41720;DHT22;27405;53.316;-6.294;2023-05-07T11:00:58;19.60;92.00
41720;DHT22;27405;53.316;-6.294;2023-05-07T11:03:24;19.60;92.00
41720;DHT22;27405;53.316;-6.294;2023-05-07T11:06:12;19.70;91.70
41720;DHT22;27405;53.316;-6.294;2023-05-07T11:09:07;19.70;91.70
41720;DHT22;27405;53.316;-6.294;2023-05-07T11:11:50;19.80;91.90
41720;DHT22;27405;53.316;-6.294;2023-05-07T11:14:43;19.90;91.70
41720;DHT22;27405;53.316;-6.294;2023-05-07T11:17:09;20.00;91.60
41720;DHT22;27405;53.316;-6.294;2023-05-07T11:19:52;20.10;91.40
41720;DHT22;27405;53.316;-6.294;2023-05-07T11:22:44;20.20;91.50
41720;DHT22;27405;53.316;-6.294;2023-05-07T11:25:10;20.30;91.40
41720;DHT22;27405;53.316;-6.294;2023-05-07T11:27:36;20.40;91.30
41720;DHT22;27405;53.316;-6.294;2023-05-07T11:30:02;20.40;91.10
41720;DHT22;27405;53.316;-6.294;2023-05-07T11:32:29;20.40;91.10
41720;DHT22;27405;53.316;-6.294;2023-05-07T11:34:56;20.30;91.10
41720;DHT22;27405;53.316;-6.294;2023-05-07T11:37:24;20.20;91.20
41720;DHT22;27405;53.316;-6.294;2023-05-07T11:39:50;20.20;91.60
41720;DHT22;27405;53.316;-6.294;2023-05-07T11:42:35;20.20;91.70
41720;DHT22;27405;53.316;-6.294;2023-05-07T11:45:03;20.30;91.60
41720;DHT22;27405;53.316;-6.294;2023-05-07T11:47:31;20.40;91.60
41720;DHT22;27405;53.316;-6.294;2023-05-07T11:50:03;20.50;91.50
41720;DHT22;27405;53.316;-6.294;2023-05-07T11:52:29;20.50;91.30
41720;DHT22;27405;53.316;-6.294;2023-05-07T11:54:56;20.50;91.30
41720;DHT22;27405;53.316;-6.294;2023-05-07T11:57:23;20.60;91.20
41720;DHT22;27405;53.316;-6.294;2023-05-07T11:59:56;20.60;91.20
41720;DHT22;27405;53.316;-6.294;2023-05-07T12:02:23;20.70;91.10
41720;DHT22;27405;53.316;-6.294;2023-05-07T12:04:53;20.70;91.10
41720;DHT22;27405;53.316;-6.294;2023-05-07T12:07:18;20.80;91.00
41720;DHT22;27405;53.316;-6.294;2023-05-07T12:09:45;20.80;91.20
41720;DHT22;27405;53.316;-6.294;2023-05-07T12:12:11;21.00;91.10
41720;DHT22;27405;53.316;-6.294;2023-05-07T12:14:41;21.10;90.80
41720;DHT22;27405;53.316;-6.294;2023-05-07T12:17:08;21.10;90.50
41720;DHT22;27405;53.316;-6.294;2023-05-07T12:19:36;21.30;90.40
41720;DHT22;27405;53.316;-6.294;2023-05-07T12:22:06;21.30;90.10
41720;DHT22;27405;53.316;-6.294;2023-05-07T12:25:03;21.30;89.40
41720;DHT22;27405;53.316;-6.294;2023-05-07T12:27:29;21.30;88.80
41720;DHT22;27405;53.316;-6.294;2023-05-07T12:29:57;21.40;88.50
41720;DHT22;27405;53.316;-6.294;2023-05-07T12:32:24;21.50;87.90
41720;DHT22;27405;53.316;-6.294;2023-05-07T12:34:50;21.60;87.10
41720;DHT22;27405;53.316;-6.294;2023-05-07T12:37:16;21.60;86.10
41720;DHT22;27405;53.316;-6.294;2023-05-07T12:39:49;21.40;85.40
41720;DHT22;27405;53.316;-6.294;2023-05-07T12:42:16;21.40;84.70
41720;DHT22;27405;53.316;-6.294;2023-05-07T12:44:46;21.30;84.60
41720;DHT22;27405;53.316;-6.294;2023-05-07T12:47:12;21.30;84.70
41720;DHT22;27405;53.316;-6.294;2023-05-07T12:49:38;21.30;84.60
41720;DHT22;27405;53.316;-6.294;2023-05-07T12:52:05;21.30;83.60
41720;DHT22;27405;53.316;-6.294;2023-05-07T12:54:32;21.30;84.10
41720;DHT22;27405;53.316;-6.294;2023-05-07T12:57:06;21.30;83.50
41720;DHT22;27405;53.316;-6.294;2023-05-07T12:59:40;21.40;83.10
41720;DHT22;27405;53.316;-6.294;2023-05-07T13:02:06;21.40;82.90
41720;DHT22;27405;53.316;-6.294;2023-05-07T13:04:32;21.40;83.00
41720;DHT22;27405;53.316;-6.294;2023-05-07T13:06:59;21.50;83.10
41720;DHT22;27405;53.316;-6.294;2023-05-07T13:09:25;21.50;83.30
41720;DHT22;27405;53.316;-6.294;2023-05-07T13:11:50;21.50;83.20
41720;DHT22;27405;53.316;-6.294;2023-05-07T13:14:16;21.50;83.20
41720;DHT22;27405;53.316;-6.294;2023-05-07T13:16:42;21.50;83.30
41720;DHT22;27405;53.316;-6.294;2023-05-07T13:19:08;21.40;83.40
41720;DHT22;27405;53.316;-6.294;2023-05-07T13:21:33;21.40;83.90
41720;DHT22;27405;53.316;-6.294;2023-05-07T13:23:59;21.50;83.90
41720;DHT22;27405;53.316;-6.294;2023-05-07T13:26:25;21.60;83.00
41720;DHT22;27405;53.316;-6.294;2023-05-07T13:28:52;21.70;82.10
41720;DHT22;27405;53.316;-6.294;2023-05-07T13:31:18;21.70;81.50
41720;DHT22;27405;53.316;-6.294;2023-05-07T13:33:43;21.70;81.20
41720;DHT22;27405;53.316;-6.294;2023-05-07T13:36:09;21.70;81.00
41720;DHT22;27405;53.316;-6.294;2023-05-07T13:38:35;21.70;81.20
41720;DHT22;27405;53.316;-6.294;2023-05-07T13:41:01;21.70;80.70
41720;DHT22;27405;53.316;-6.294;2023-05-07T13:43:26;21.70;80.20
41720;DHT22;27405;53.316;-6.294;2023-05-07T13:45:52;21.70;80.00
41720;DHT22;27405;53.316;-6.294;2023-05-07T13:48:18;21.80;79.50
41720;DHT22;27405;53.316;-6.294;2023-05-07T13:50:43;21.90;79.80
41720;DHT22;27405;53.316;-6.294;2023-05-07T13:53:09;22.00;79.60
41720;DHT22;27405;53.316;-6.294;2023-05-07T13:55:35;22.30;79.20
41720;DHT22;27405;53.316;-6.294;2023-05-07T13:58:02;22.40;78.50
41720;DHT22;27405;53.316;-6.294;2023-05-07T14:00:28;22.50;78.40
41720;DHT22;27405;53.316;-6.294;2023-05-07T14:02:55;22.60;78.00
41720;DHT22;27405;53.316;-6.294;2023-05-07T14:05:21;22.60;77.30
41720;DHT22;27405;53.316;-6.294;2023-05-07T14:07:51;22.70;77.30
41720;DHT22;27405;53.316;-6.294;2023-05-07T14:10:18;22.70;76.60
41720;DHT22;27405;53.316;-6.294;2023-05-07T14:12:44;22.90;76.10
41720;DHT22;27405;53.316;-6.294;2023-05-07T14:15:10;22.90;75.50
41720;DHT22;27405;53.316;-6.294;2023-05-07T14:17:36;22.90;75.10
41720;DHT22;27405;53.316;-6.294;2023-05-07T14:20:02;22.70;74.70
41720;DHT22;27405;53.316;-6.294;2023-05-07T14:22:28;22.60;75.40
41720;DHT22;27405;53.316;-6.294;2023-05-07T14:24:54;22.60;75.10
41720;DHT22;27405;53.316;-6.294;2023-05-07T14:27:20;22.50;74.60
41720;DHT22;27405;53.316;-6.294;2023-05-07T14:29:45;22.50;73.90
41720;DHT22;27405;53.316;-6.294;2023-05-07T14:32:19;22.40;73.20
41720;DHT22;27405;53.316;-6.294;2023-05-07T14:34:45;22.40;73.50
41720;DHT22;27405;53.316;-6.294;2023-05-07T14:37:11;22.60;73.10
41720;DHT22;27405;53.316;-6.294;2023-05-07T14:39:37;22.70;72.60
41720;DHT22;27405;53.316;-6.294;2023-05-07T14:42:02;22.80;72.00
41720;DHT22;27405;53.316;-6.294;2023-05-07T14:44:28;22.70;71.60
41720;DHT22;27405;53.316;-6.294;2023-05-07T14:46:54;22.80;72.10
41720;DHT22;27405;53.316;-6.294;2023-05-07T14:49:20;22.90;71.90
41720;DHT22;27405;53.316;-6.294;2023-05-07T14:51:46;22.80;71.40
41720;DHT22;27405;53.316;-6.294;2023-05-07T14:54:13;22.70;71.10
41720;DHT22;27405;53.316;-6.294;2023-05-07T14:56:40;22.40;71.50
41720;DHT22;27405;53.316;-6.294;2023-05-07T14:59:07;22.30;72.10
41720;DHT22;27405;53.316;-6.294;2023-05-07T15:01:34;22.20;72.20
41720;DHT22;27405;53.316;-6.294;2023-05-07T15:04:00;22.20;72.00
41720;DHT22;27405;53.316;-6.294;2023-05-07T15:06:27;22.10;72.20
41720;DHT22;27405;53.316;-6.294;2023-05-07T15:08:54;22.10;72.30
41720;DHT22;27405;53.316;-6.294;2023-05-07T15:11:20;22.00;72.90
41720;DHT22;27405;53.316;-6.294;2023-05-07T15:13:46;21.90;72.80
41720;DHT22;27405;53.316;-6.294;2023-05-07T15:16:11;21.80;73.20